Latest Coastal Weather Observations for Rottnest Island

IDW60701

Issued at 10:25 pm WST Tuesday 23 September 2014 (issued every 10 minutes, with the page automatically refreshed every 10 minutes)

About coastal observations | Map of coastal stations | Coastal observations for WA | Marine services | Other Formats
Station Details ID: 009193 Name: ROTTNEST ISLAND Lat: -32.01 Lon: 115.50 Height: 43.1 m
Data from the previous 72 hours. | See also: Recent months at Rottnest Island
Date/Time
WST
Temp

°C
Wind Pressure Rain
since 9am
mm
Weather Cloud Vis
km
Sea
Height
m
Swell
Dir
 
Speed
knots
Gust
knots
hPa Trend Height
m
Period
s
Dir
23/10:00pm 15.1 SSE 7 9 1026.6 - 0.0 - - - - - - -
23/09:30pm 15.0 S 7 10 1026.5 - 0.0 - - - - - - -
23/09:00pm 14.9 S 4 6 1026.6 - 0.0 - - - - - - -
23/08:30pm 14.9 SSE 6 8 1026.5 - 0.0 - - - - - - -
23/08:00pm 15.1 SE 6 8 1026.1 - 0.0 - - - - - - -
23/07:30pm 14.8 S 5 7 1026.3 - 0.0 - - - - - - -
23/07:00pm 14.6 S 6 8 1026.2 - 0.0 - - - - - - -
23/06:30pm 14.5 S 7 8 1025.8 - 0.0 - - - - - - -
23/06:00pm 14.7 S 5 6 1025.5 - 0.0 - - - - - - -
23/05:30pm 14.7 S 4 6 1025.4 - 0.0 - - - - - - -
23/05:00pm 14.9 SSW 6 8 1025.3 - 0.0 - - - - - - -
23/04:30pm 15.0 S 5 7 1025.2 - 0.0 - - - - - - -
23/04:00pm 15.2 SSW 5 7 1025.1 - 0.0 - - - - - - -
23/03:30pm 15.1 S 6 9 1025.1 - 0.0 - - - - - - -
23/03:00pm 14.9 S 6 8 1025.3 - 0.0 - - - - - - -
23/02:30pm 15.0 S 5 6 1025.5 - 0.0 - - - - - - -
23/02:00pm 15.2 S 4 6 1025.6 - 0.0 - - - - - - -
23/01:30pm 15.0 S 5 7 1025.7 - 0.0 - - - - - - -
23/01:00pm 14.9 SSE 6 9 1026.0 - 0.0 - - - - - - -
23/12:30pm 15.2 SE 7 9 1026.0 - 0.0 - - - - - - -
23/12:00pm 15.0 ESE 6 9 1026.2 - 0.0 - - - - - - -
23/11:30am 15.2 SE 6 9 1026.4 - 0.0 - - - - - - -
23/11:00am 14.9 E 7 10 1026.6 - 0.0 - - - - - - -
23/10:30am 14.8 E 7 10 1026.9 - 0.0 - - - - - - -
23/10:00am 14.4 ESE 7 9 1027.1 - 0.0 - - - - - - -
23/09:30am 14.2 ESE 7 10 1027.1 - 0.0 - - - - - - -
23/09:00am 13.8 E 6 8 1027.1 - 0.0 - - - - - - -
23/08:30am 13.6 E 7 9 1027.0 - 0.0 - - - - - - -
23/08:00am 13.4 ENE 7 9 1026.8 - 0.0 - - - - - - -
23/07:30am 13.0 E 7 8 1026.7 - 0.0 - - - - - - -
23/07:00am 12.6 E 6 9 1026.3 - 0.0 - - - - - - -
23/06:30am 12.6 E 6 9 1026.2 - 0.0 - - - - - - -
23/06:00am 12.8 E 7 9 1025.8 - 0.0 - - - - - - -
23/05:30am 12.6 E 6 8 1025.7 - 0.0 - - - - - - -
23/05:00am 12.5 E 7 9 1025.3 - 0.0 - - - - - - -
23/04:30am 12.5 E 7 9 1025.3 - 0.0 - - - - - - -
23/04:00am 12.6 E 9 11 1025.1 - 0.0 - - - - - - -
23/03:30am 12.6 E 7 9 1025.1 - 0.0 - - - - - - -
23/03:00am 12.8 ESE 8 12 1025.1 - 0.0 - - - - - - -
23/02:30am 12.9 ESE 9 15 1025.1 - 0.0 - - - - - - -
23/02:00am 13.2 SE 11 17 1025.3 - 0.0 - - - - - - -
23/01:30am 13.2 SE 13 19 1025.5 - 0.0 - - - - - - -
23/01:00am 13.5 SE 15 19 1025.5 - 0.0 - - - - - - -
23/12:30am 13.6 SE 18 23 1025.4 - 0.0 - - - - - - -
23/12:00am 13.7 SSE 16 22 1025.4 - 0.0 - - - - - - -
 
Date/Time
WST
Temp

°C
Wind Pressure Rain
since 9am
mm
Weather Cloud Vis
km
Sea
Height
m
Swell
Dir
 
Speed
knots
Gust
knots
hPa Trend Height
m
Period
s
Dir
22/11:30pm 14.0 SSE 17 22 1025.5 - 0.0 - - - - - - -
22/11:00pm 14.5 SSE 16 24 1025.4 - 0.0 - - - - - - -
22/10:30pm 14.4 S 16 20 1025.8 - 0.0 - - - - - - -
22/10:00pm 14.5 S 17 21 1025.6 - 0.0 - - - - - - -
22/09:30pm 14.8 S 18 23 1025.7 - 0.0 - - - - - - -
22/09:00pm 14.3 S 15 19 1025.7 - 0.0 - - - - - - -
22/08:30pm 14.7 S 18 23 1025.5 - 0.0 - - - - - - -
22/08:00pm 14.7 S 19 25 1025.2 - 0.0 - - - - - - -
22/07:30pm 14.9 S 19 24 1024.7 - 0.0 - - - - - - -
22/07:00pm 15.0 S 20 24 1024.3 - 0.0 - - - - - - -
22/06:30pm 14.6 S 19 25 1024.0 - 0.0 - - - - - - -
22/06:00pm 14.5 S 19 23 1023.8 - 0.0 - - - - - - -
22/05:30pm 14.7 S 19 24 1023.5 - 0.0 - - - - - - -
22/05:00pm 15.0 S 19 23 1023.1 - 0.0 - - - - - - -
22/04:30pm 15.1 SSW 19 24 1023.0 - 0.0 - - - - - - -
22/04:03pm 15.5 S 19 29 1022.6 - 0.0 - - - - - - -
22/04:00pm 15.3 S 19 25 1022.7 - 0.0 - - - - - - -
22/03:30pm 15.6 S 21 25 1022.6 - 0.0 - - - - - - -
22/03:00pm 16.3 S 19 24 1022.2 - 0.0 - - - - - - -
22/02:30pm 15.6 S 18 23 1022.2 - 0.0 - - - - - - -
22/02:00pm 15.6 S 19 24 1022.3 - 0.0 - - - - - - -
22/01:30pm 15.3 S 17 23 1022.3 - 0.0 - - - - - - -
22/01:00pm 15.8 S 18 22 1022.4 - 0.0 - - - - - - -
22/12:30pm 15.1 S 18 22 1022.2 - 0.0 - - - - - - -
22/12:00pm 15.3 S 15 19 1022.4 - 0.0 - - - - - - -
22/11:30am 15.5 S 16 21 1022.3 - 0.0 - - - - - - -
22/11:00am 14.8 S 18 22 1022.3 - 0.0 - - - - - - -
22/10:30am 14.3 S 19 25 1022.3 - 0.0 - - - - - - -
22/10:00am 14.1 SSE 19 23 1022.2 - 0.0 - - - - - - -
22/09:30am 13.9 SSE 16 22 1022.1 - 0.0 - - - - - - -
22/09:00am 13.8 SSE 15 23 1022.0 - 30.4 Recent precip. - - - - - -
22/08:30am 11.4 S 12 16 1021.9 - 30.4 - - - - - - -
22/08:00am 9.9 S 14 19 1021.6 - 30.0 - - - - - - -
22/07:50am 9.8 S 19 29 1021.5 - 28.8 - - - - - - -
22/07:30am 11.7 SSE 19 26 1021.0 - 28.4 - - - - - - -
22/07:00am 12.1 SE 23 27 1019.9 - 28.2 - - - - - - -
22/06:30am 12.2 S 22 30 1019.5 - 28.2 - - - - - - -
22/06:22am 11.8 SSE 20 28 1019.1 - 28.2 - - - - - - -
22/06:04am 12.9 SSW 15 25 1018.9 - 27.6 - - - - - - -
22/06:00am 12.0 SSW 12 16 1019.1 - 27.6 Recent precip. - - - - - -
22/05:58am 11.9 SSW 11 16 1019.0 - 27.6 - - - - - - -
22/05:36am 10.3 WSW 26 36 1019.3 - 27.6 - - - - - - -
22/05:30am 10.7 WSW 30 36 1019.1 - 27.4 - - - - - - -
22/05:18am 11.4 SW 22 32 1018.7 - 27.4 - - - - - - -
22/05:16am 11.7 SSW 23 29 1018.6 - 27.4 - - - - - - -
22/05:06am 12.8 S 21 31 1017.8 - 27.2 - - - - - - -
22/05:00am 12.8 SSE 21 26 1017.5 - 27.2 - - - - - - -
22/04:30am 12.2 SSE 27 36 1016.7 - 27.2 - - - - - - -
22/04:11am 12.4 S 22 32 1016.4 - 27.0 - - - - - - -
22/04:07am 11.8 S 21 25 1016.7 - 27.0 - - - - - - -
22/04:00am 11.5 SSW 29 40 1017.0 - 26.8 - - - - - - -
22/03:58am 11.6 SSW 30 40 1017.0 - 26.6 - - - - - - -
22/03:51am 12.1 SSW 33 40 1016.4 - 26.2 - - - - - - -
22/03:30am 12.6 S 21 35 1016.4 - 26.2 - - - - - - -
22/03:27am 13.2 S 19 34 1016.3 - 26.2 - - - - - - -
22/03:13am 11.7 S 19 23 1016.4 - 26.2 - - - - - - -
22/03:00am 10.9 S 30 38 1015.9 - 26.2 Rain - - - - - -
22/02:49am 10.9 S 26 40 1015.7 - 26.0 - - - - - - -
22/02:30am 12.9 S 24 31 1015.6 - 25.8 - - - - - - -
22/02:03am 12.9 S 25 38 1015.7 - 25.6 - - - - - - -
22/02:00am 13.4 S 25 31 1015.6 - 25.6 - - - - - - -
22/01:43am 13.4 S 23 33 1015.4 - 25.6 - - - - - - -
22/01:30am 12.7 S 28 35 1014.9 - 25.6 - - - - - - -
22/01:12am 13.0 S 28 44 1014.9 - 25.6 - - - - - - -
22/01:10am 12.8 S 21 32 1015.2 - 25.6 - - - - - - -
22/01:00am 11.6 S 16 23 1015.7 - 24.4 - - - - - - -
22/12:30am 13.2 S 28 39 1015.0 - 23.0 - - - - - - -
22/12:00am 14.4 S 31 41 1014.1 - 23.0 - - - - - - -
 
Date/Time
WST
Temp

°C
Wind Pressure Rain
since 9am
mm
Weather Cloud Vis
km
Sea
Height
m
Swell
Dir
 
Speed
knots
Gust
knots
hPa Trend Height
m
Period
s
Dir
21/11:56pm 14.5 S 31 41 1013.6 - 23.0 - - - - - - -
21/11:30pm 14.6 S 32 41 1013.7 - 23.0 - - - - - - -
21/11:00pm 14.5 S 34 41 1012.9 - 23.0 - - - - - - -
21/10:50pm 14.4 S 31 41 1013.3 - 23.0 - - - - - - -
21/10:30pm 14.3 S 32 40 1013.0 - 23.0 - - - - - - -
21/10:00pm 14.0 S 34 42 1012.4 - 23.0 - - - - - - -
21/09:45pm 13.5 S 31 41 1012.8 - 23.0 - - - - - - -
21/09:30pm 13.9 S 33 41 1012.1 - 23.0 - - - - - - -
21/09:01pm 13.6 S 34 44 1011.0 - 23.0 - - - - - - -
21/09:00pm 13.9 S 34 43 1011.4 - 23.0 - - - - - - -
21/08:33pm 14.0 S 34 44 1010.6 - 23.0 - - - - - - -
21/08:30pm 14.1 S 35 41 1011.0 - 23.0 - - - - - - -
21/08:00pm 14.1 S 32 40 1011.0 - 23.0 - - - - - - -
21/07:30pm 14.0 S 34 40 1010.0 - 23.0 - - - - - - -
21/07:00pm 13.6 S 32 40 1009.6 - 23.0 - - - - - - -
21/06:33pm 13.3 SSW 31 41 1009.2 - 22.4 - - - - - - -
21/06:30pm 13.6 SSW 31 39 1009.4 - 22.4 - - - - - - -
21/06:01pm 13.1 SSW 33 43 1009.2 - 21.2 - - - - - - -
21/06:00pm 12.9 SSW 34 43 1008.9 - 21.2 Rain - - - - - -
21/05:39pm 13.3 S 29 39 1008.6 - 18.8 - - - - - - -
21/05:38pm 13.5 S 28 31 1008.7 - 18.6 - - - - - - -
21/05:32pm 14.2 SW 16 28 1008.6 - 18.2 - - - - - - -
21/05:30pm 14.5 SW 14 22 1008.3 - 18.2 - - - - - - -
21/05:00pm 14.5 NW 14 18 1008.1 - 18.2 - - - - - - -
21/04:30pm 13.9 WNW 16 21 1008.3 - 17.6 - - - - - - -
21/04:00pm 13.0 NW 17 25 1008.4 - 16.2 - - - - - - -
21/03:59pm 12.9 NW 18 28 1008.3 - 16.0 - - - - - - -
21/03:30pm 15.1 NW 18 23 1007.6 - 12.4 - - - - - - -
21/03:00pm 14.7 N 11 14 1006.7 - 12.4 - - - - - - -
21/02:30pm 14.9 NNW 15 19 1007.9 - 12.4 - - - - - - -
21/02:00pm 14.5 NW 10 12 1007.5 - 12.4 - - - - - - -
21/01:30pm 14.0 W 3 5 1007.1 - 12.2 - - - - - - -
21/01:00pm 13.6 W 8 11 1007.4 - 11.6 - - - - - - -
21/12:30pm 13.9 WSW 15 20 1008.0 - 10.8 - - - - - - -
21/12:00pm 13.9 WSW 16 21 1007.9 - 10.2 Rain - - - - - -
21/11:30am 13.8 WSW 18 25 1007.0 - 8.6 - - - - - - -
21/11:00am 13.9 WSW 24 29 1007.0 - 7.6 - - - - - - -
21/10:30am 14.3 SW 25 32 1006.3 - 6.6 - - - - - - -
21/10:00am 14.5 WSW 23 29 1006.4 - 3.4 - - - - - - -
21/09:30am 14.7 WSW 25 31 1005.6 - 2.4 - - - - - - -
21/09:19am 14.5 WSW 28 38 1005.5 - 2.2 - - - - - - -
21/09:02am 16.2 WSW 27 33 1004.7 - 0.6 - - - - - - -
21/09:01am 17.3 W 19 31 1004.4 - 0.0 - - - - - - -
21/09:00am 18.5 NW 18 25 1004.2 - 0.0 - - - - - - -
21/08:30am 19.2 N 32 42 1003.1 - 0.0 - - - - - - -
21/08:23am 19.2 N 31 42 1002.9 - 0.0 - - - - - - -
21/08:00am 19.4 N 32 39 1002.9 - 0.0 - - - - - - -
21/07:30am 18.8 N 31 39 1003.0 - 0.0 - - - - - - -
21/07:00am 18.6 N 28 38 1003.6 - 0.0 - - - - - - -
21/06:30am 18.4 N 26 37 1003.6 - 0.0 - - - - - - -
21/06:00am 18.3 N 23 37 1004.3 - 0.0 - - - - - - -
21/05:55am 18.4 N 24 37 1004.1 - 0.0 - - - - - - -
21/05:30am 18.4 N 23 28 1004.4 - 0.0 - - - - - - -
21/05:00am 18.6 N 24 31 1004.7 - 0.0 - - - - - - -
21/04:30am 18.7 N 23 28 1005.1 - 0.0 - - - - - - -
21/04:00am 18.9 N 23 31 1004.9 - 0.0 - - - - - - -
21/03:30am 19.0 N 23 29 1005.2 - 0.0 - - - - - - -
21/03:00am 19.0 N 23 30 1005.9 - 0.0 - - - - - - -
21/02:30am 19.0 N 23 30 1006.3 - 0.0 - - - - - - -
21/02:00am 18.8 N 20 25 1007.2 - 0.0 - - - - - - -
21/01:30am 19.0 N 17 23 1007.5 - 0.0 - - - - - - -
21/01:00am 19.4 N 19 23 1007.8 - 0.0 - - - - - - -
21/12:30am 19.2 N 15 19 1008.1 - 0.0 - - - - - - -
21/12:00am 19.5 N 16 19 1009.1 - 0.0 - - - - - - -
 
Date/Time
WST
Temp

°C
Wind Pressure Rain
since 9am
mm
Weather Cloud Vis
km
Sea
Height
m
Swell
Dir
 
Speed
knots
Gust
knots
hPa Trend Height
m
Period
s
Dir
20/11:30pm 19.6 N 16 20 1009.8 - 0.0 - - - - - - -
20/11:00pm 19.6 N 17 22 1010.5 - 0.0 - - - - - - -
20/10:30pm 19.5 NNW 17 22 1010.6 - 0.0 - - - - - - -

Other Formats:

Comma delimited format used in spreadsheet applications
http://www.bom.gov.au/fwo/IDW60701/IDW60701.94602.axf

JavaScript Object Notation format (JSON) in row-major order
http://www.bom.gov.au/fwo/IDW60701/IDW60701.94602.json